Time;durP1;ratioP1;P1;durP2;ratioP2;P2;SDS_P1;SDS_P2;PMS_P1;PMS_P2;Temp;Humidity;BMP_temperature;BMP_pressure;BME280_temperature;BME280_humidity;BME280_pressure;Samples;Min_cycle;Max_cycle;Signal;HPM_P1;HPM_P2
2022/11/05 00:09:45;;;;;;;;;;;7.80;97.30;;;;;;5001631;28;1541;-71
2022/11/05 00:17:55;;;;;;;;;;;7.80;97.50;;;;;;4996141;28;1113;-70
2022/11/05 00:20:24;;;;;;;;;;;7.70;97.60;;;;;;4999440;28;1077;-71
2022/11/05 00:25:52;;;;;;;;;;;7.80;97.90;;;;;;5020974;28;1129;-70
2022/11/05 00:28:20;;;;;;;;;;;7.90;97.90;;;;;;5000906;28;1729;-69
2022/11/05 00:30:47;;;;;;;;;;;8.00;97.60;;;;;;5002298;28;1778;-68
2022/11/05 00:33:15;;;;;;;;;;;8.00;97.70;;;;;;4998584;28;2580;-73
2022/11/05 00:35:44;;;;;;;;;;;8.20;98.00;;;;;;5007445;28;2291;-72
2022/11/05 00:38:12;;;;;;;;;;;8.20;97.80;;;;;;5003573;28;2252;-71
2022/11/05 00:40:40;;;;;;;;;;;8.30;97.60;;;;;;4999216;28;2304;-72
2022/11/05 00:45:52;;;;;;;;;;;8.40;97.30;;;;;;5004270;28;1915;-71
2022/11/05 00:51:07;;;;;;;;;;;8.50;97.10;;;;;;5004505;28;1362;-71
2022/11/05 00:53:34;;;;;;;;;;;8.60;97.00;;;;;;4998403;28;1973;-71
2022/11/05 00:56:02;;;;;;;;;;;8.60;96.80;;;;;;4997769;28;2284;-71
2022/11/05 00:58:30;;;;;;;;;;;8.60;96.90;;;;;;4996395;28;1224;-71
2022/11/05 01:00:58;;;;;;;;;;;8.70;96.90;;;;;;5000907;28;2236;-70
2022/11/05 01:03:27;;;;;;;;;;;8.70;96.70;;;;;;4998316;28;2280;-70
2022/11/05 01:05:57;;;;;;;;;;;8.70;96.80;;;;;;5004775;28;1242;-71
2022/11/05 01:08:27;;;;;;;;;;;8.70;96.50;;;;;;5004298;28;1013;-70
2022/11/05 01:10:55;;;;;;;;;;;8.70;96.40;;;;;;5000697;28;1354;-70
2022/11/05 01:13:24;;;;;;;;;;;8.60;96.40;;;;;;4997283;28;1997;-70
2022/11/05 01:15:52;;;;;;;;;;;8.60;96.10;;;;;;4997453;28;1432;-71
2022/11/05 01:18:20;;;;;;;;;;;8.40;96.10;;;;;;4997786;28;1040;-70
2022/11/05 01:20:48;;;;;;;;;;;8.30;96.20;;;;;;5000338;28;1311;-71
2022/11/05 01:23:16;;;;;;;;;;;8.20;96.40;;;;;;4999146;28;1005;-69
2022/11/05 01:25:45;;;;;;;;;;;8.20;96.40;;;;;;5001317;28;1164;-69
2022/11/05 01:28:13;;;;;;;;;;;8.00;96.50;;;;;;4997615;28;2225;-70
2022/11/05 01:30:40;;;;;;;;;;;8.00;96.50;;;;;;5002210;28;2252;-70
2022/11/05 01:33:08;;;;;;;;;;;7.90;96.70;;;;;;5004905;28;1914;-69
2022/11/05 01:35:36;;;;;;;;;;;7.80;96.60;;;;;;4995307;28;1049;-70
2022/11/05 01:38:03;;;;;;;;;;;7.80;96.50;;;;;;5001771;28;1068;-68
2022/11/05 01:40:31;;;;;;;;;;;7.70;96.60;;;;;;5003866;28;1034;-67
2022/11/05 01:43:00;;;;;;;;;;;7.70;96.60;;;;;;4996758;28;1512;-69
2022/11/05 01:45:28;;;;;;;;;;;7.80;96.80;;;;;;5002962;28;1017;-70
2022/11/05 01:48:01;;;;;;;;;;;7.60;96.70;;;;;;5003553;28;1017;-70
2022/11/05 01:50:33;;;;;;;;;;;7.50;96.80;;;;;;4995951;28;1057;-70
2022/11/05 01:53:04;;;;;;;;;;;7.40;97.10;;;;;;4996332;28;2256;-70
2022/11/05 01:55:34;;;;;;;;;;;7.40;97.20;;;;;;5002482;28;1148;-70
2022/11/05 01:58:03;;;;;;;;;;;7.40;97.10;;;;;;5004664;28;2232;-69
2022/11/05 02:00:31;;;;;;;;;;;7.40;97.10;;;;;;4998926;28;1065;-68
2022/11/05 02:02:58;;;;;;;;;;;7.30;97.20;;;;;;5001361;28;2306;-70
2022/11/05 02:05:26;;;;;;;;;;;7.30;97.30;;;;;;5000579;28;2235;-70
2022/11/05 02:07:54;;;;;;;;;;;7.30;97.20;;;;;;5002570;28;2195;-71
2022/11/05 02:10:22;;;;;;;;;;;7.30;97.10;;;;;;5002555;28;1052;-72
2022/11/05 02:12:50;;;;;;;;;;;7.20;97.10;;;;;;5002416;28;2299;-72
2022/11/05 02:18:20;;;;;;;;;;;7.20;97.30;;;;;;5594397;22;1660;-88
2022/11/05 02:20:52;;;;;;;;;;;7.10;97.20;;;;;;5016019;28;1612;-88
2022/11/05 02:23:41;;;;;;;;;;;7.10;97.30;;;;;;5008879;28;2433;-88
2022/11/05 02:26:27;;;;;;;;;;;7.10;97.30;;;;;;5001470;28;1144;-87
2022/11/05 02:29:06;;;;;;;;;;;7.10;97.20;;;;;;5011945;28;1523;-87
2022/11/05 02:31:37;;;;;;;;;;;7.00;97.30;;;;;;5004481;28;780;-87
2022/11/05 02:34:11;;;;;;;;;;;7.00;97.00;;;;;;5007757;28;1979;-89
2022/11/05 02:36:43;;;;;;;;;;;6.90;97.10;;;;;;5007356;28;1013;-87
2022/11/05 02:39:17;;;;;;;;;;;6.90;97.10;;;;;;5010840;28;1365;-87
2022/11/05 02:41:51;;;;;;;;;;;7.00;97.20;;;;;;5014180;28;1156;-89
2022/11/05 02:44:24;;;;;;;;;;;7.20;97.20;;;;;;5007406;28;1104;-87
2022/11/05 02:46:57;;;;;;;;;;;6.90;97.00;;;;;;5015118;28;1313;-86
2022/11/05 02:49:33;;;;;;;;;;;6.80;97.00;;;;;;5007938;28;1709;-87
2022/11/05 02:52:03;;;;;;;;;;;6.80;97.30;;;;;;5016946;28;1104;-86
2022/11/05 02:54:33;;;;;;;;;;;6.80;97.30;;;;;;5019515;28;1919;-86
2022/11/05 02:57:02;;;;;;;;;;;6.70;97.20;;;;;;5013154;28;1632;-88
2022/11/05 02:59:30;;;;;;;;;;;6.70;97.20;;;;;;5014254;28;1580;-88
2022/11/05 03:01:59;;;;;;;;;;;6.70;97.00;;;;;;5009143;28;1571;-87
2022/11/05 03:04:27;;;;;;;;;;;6.60;97.10;;;;;;5017366;28;2342;-86
2022/11/05 03:07:01;;;;;;;;;;;6.70;97.30;;;;;;5011581;28;1065;-87
2022/11/05 03:09:38;;;;;;;;;;;6.70;97.30;;;;;;5012372;28;1723;-89
2022/11/05 03:12:12;;;;;;;;;;;6.70;97.50;;;;;;5014663;28;2290;-88
2022/11/05 03:14:43;;;;;;;;;;;6.70;97.50;;;;;;5032530;28;1954;-88
2022/11/05 03:17:20;;;;;;;;;;;6.70;97.50;;;;;;5020902;28;1453;-87
2022/11/05 03:19:49;;;;;;;;;;;6.70;97.40;;;;;;5007715;28;1582;-88
2022/11/05 03:22:20;;;;;;;;;;;6.70;97.10;;;;;;5010888;28;1434;-90
2022/11/05 03:24:49;;;;;;;;;;;7.00;97.30;;;;;;5011555;28;1580;-89
2022/11/05 03:27:21;;;;;;;;;;;6.70;97.30;;;;;;5013942;28;1394;-88
2022/11/05 03:29:50;;;;;;;;;;;6.70;97.30;;;;;;5019350;28;1442;-88
2022/11/05 03:32:21;;;;;;;;;;;6.70;97.20;;;;;;5012624;28;1502;-90
2022/11/05 03:34:51;;;;;;;;;;;7.00;97.40;;;;;;5009866;28;1915;-88
2022/11/05 03:37:20;;;;;;;;;;;6.40;97.30;;;;;;5014482;28;1540;-86
2022/11/05 03:39:49;;;;;;;;;;;6.70;97.40;;;;;;5014739;28;1571;-87
2022/11/05 03:42:18;;;;;;;;;;;6.70;97.40;;;;;;5013639;28;1320;-88
2022/11/05 03:44:47;;;;;;;;;;;6.70;97.30;;;;;;5017228;28;1514;-88
2022/11/05 03:47:19;;;;;;;;;;;6.60;97.30;;;;;;5014855;28;1589;-88
2022/11/05 03:49:53;;;;;;;;;;;6.60;97.20;;;;;;5025030;28;1535;-88
2022/11/05 03:52:24;;;;;;;;;;;6.70;97.50;;;;;;5022613;28;2441;-88
2022/11/05 03:54:52;;;;;;;;;;;6.60;97.40;;;;;;5018183;28;1989;-88
2022/11/05 03:57:21;;;;;;;;;;;6.60;96.90;;;;;;5026124;28;1676;-87
2022/11/05 03:59:50;;;;;;;;;;;6.80;97.20;;;;;;5030206;28;1312;-86
2022/11/05 04:02:19;;;;;;;;;;;6.50;97.10;;;;;;5028349;28;1275;-87
2022/11/05 04:04:47;;;;;;;;;;;6.50;97.20;;;;;;5021093;28;1609;-89
2022/11/05 04:13:24;;;;;;;;;;;5.90;97.70;;;;;;5003144;28;1605;-90
2022/11/05 04:18:39;;;;;;;;;;;6.40;97.60;;;;;;5033701;28;1679;-88
2022/11/05 04:24:08;;;;;;;;;;;6.60;97.40;;;;;;5021861;28;1598;-88
2022/11/05 04:26:38;;;;;;;;;;;6.00;97.00;;;;;;5021803;28;1707;-89
2022/11/05 04:31:57;;;;;;;;;;;6.60;96.70;;;;;;5024646;28;1663;-91
2022/11/05 04:34:25;;;;;;;;;;;6.30;97.00;;;;;;5022905;28;2000;-90
2022/11/05 04:36:53;;;;;;;;;;;6.60;96.80;;;;;;5002616;28;1604;-90
2022/11/05 04:39:23;;;;;;;;;;;6.50;96.60;;;;;;5003262;28;1687;-90
2022/11/05 04:41:52;;;;;;;;;;;6.30;97.40;;;;;;5005580;28;1437;-90
2022/11/05 04:44:23;;;;;;;;;;;6.20;96.70;;;;;;5004967;28;1535;-89
2022/11/05 04:46:54;;;;;;;;;;;6.30;97.80;;;;;;5004200;28;1002;-89
2022/11/05 04:49:29;;;;;;;;;;;6.60;96.80;;;;;;5012161;28;1678;-88
2022/11/05 04:51:58;;;;;;;;;;;6.30;97.50;;;;;;5026017;28;1574;-90
2022/11/05 04:54:27;;;;;;;;;;;6.30;96.50;;;;;;5026715;28;1910;-88
2022/11/05 04:56:57;;;;;;;;;;;6.20;97.30;;;;;;5018833;28;1443;-89
2022/11/05 04:59:28;;;;;;;;;;;6.30;97.20;;;;;;5022765;28;1601;-89
2022/11/05 05:01:59;;;;;;;;;;;6.20;97.00;;;;;;5024571;28;1583;-91
2022/11/05 05:07:22;;;;;;;;;;;6.20;96.60;;;;;;5005289;28;1675;-89
2022/11/05 05:10:06;;;;;;;;;;;6.10;96.80;;;;;;5004523;28;1389;-90
2022/11/05 05:12:37;;;;;;;;;;;5.90;97.50;;;;;;5004643;28;1674;-91
2022/11/05 05:15:09;;;;;;;;;;;6.20;97.40;;;;;;5011753;28;1959;-91
2022/11/05 05:17:55;;;;;;;;;;;5.90;97.50;;;;;;5024180;28;1503;-88
2022/11/05 05:23:59;;;;;;;;;;;6.20;97.70;;;;;;5009489;28;1361;-88
2022/11/05 05:26:33;;;;;;;;;;;6.30;96.90;;;;;;5018172;28;1699;-89
2022/11/05 05:29:32;;;;;;;;;;;6.30;97.30;;;;;;5023979;28;1568;-88
2022/11/05 05:32:17;;;;;;;;;;;6.20;97.20;;;;;;5011950;28;986;-90
2022/11/05 05:34:49;;;;;;;;;;;6.10;96.70;;;;;;5006479;28;1958;-90
2022/11/05 05:37:30;;;;;;;;;;;6.20;97.20;;;;;;5021101;28;1505;-90
2022/11/05 05:40:08;;;;;;;;;;;6.40;96.70;;;;;;5024628;28;1662;-91
2022/11/05 05:42:37;;;;;;;;;;;6.30;97.70;;;;;;5020459;28;1377;-91
2022/11/05 05:45:22;;;;;;;;;;;6.10;97.30;;;;;;5022661;28;1400;-88
2022/11/05 05:47:56;;;;;;;;;;;6.20;97.50;;;;;;5024521;28;1625;-91
2022/11/05 05:50:24;;;;;;;;;;;6.40;97.70;;;;;;5021003;28;1507;-90
2022/11/05 05:52:54;;;;;;;;;;;6.30;96.70;;;;;;5004493;28;1489;-89
2022/11/05 05:55:22;;;;;;;;;;;6.40;97.20;;;;;;5020491;28;1898;-88
2022/11/05 05:57:52;;;;;;;;;;;6.00;96.80;;;;;;5015952;28;1600;-89
2022/11/05 06:03:09;;;;;;;;;;;6.00;97.50;;;;;;5033429;28;1617;-91
2022/11/05 06:05:42;;;;;;;;;;;6.00;96.70;;;;;;5024748;28;1700;-89
2022/11/05 06:08:09;;;;;;;;;;;6.00;97.20;;;;;;5009175;28;1623;-90
2022/11/05 06:10:37;;;;;;;;;;;6.00;96.80;;;;;;5016042;28;1562;-90
2022/11/05 06:13:07;;;;;;;;;;;6.00;97.10;;;;;;5010905;28;1536;-87
2022/11/05 06:15:35;;;;;;;;;;;6.00;97.40;;;;;;5011047;28;1910;-88
2022/11/05 06:18:03;;;;;;;;;;;6.00;96.80;;;;;;5015511;28;1406;-87
2022/11/05 06:20:33;;;;;;;;;;;6.00;96.90;;;;;;5010111;28;1257;-89
2022/11/05 06:23:02;;;;;;;;;;;6.00;96.90;;;;;;5023284;28;2697;-88
2022/11/05 06:28:23;;;;;;;;;;;6.00;97.00;;;;;;5013561;28;1614;-87
2022/11/05 06:30:53;;;;;;;;;;;6.30;97.60;;;;;;5022151;28;1473;-89
2022/11/05 06:33:21;;;;;;;;;;;6.10;97.60;;;;;;5029864;28;1569;-85
2022/11/05 06:35:55;;;;;;;;;;;6.30;96.50;;;;;;5028020;28;1973;-87
2022/11/05 06:41:21;;;;;;;;;;;5.90;97.60;;;;;;5030092;28;2522;-88
2022/11/05 06:43:56;;;;;;;;;;;6.00;97.00;;;;;;5034085;28;1523;-88
2022/11/05 06:46:24;;;;;;;;;;;5.60;97.40;;;;;;5040607;28;1409;-89
2022/11/05 06:48:55;;;;;;;;;;;6.30;97.20;;;;;;5014597;28;1269;-86
2022/11/05 06:51:25;;;;;;;;;;;6.10;97.40;;;;;;5019860;28;1093;-89
2022/11/05 06:53:55;;;;;;;;;;;6.10;96.40;;;;;;5018667;28;1402;-88
2022/11/05 06:56:29;;;;;;;;;;;6.40;96.90;;;;;;5020497;28;1910;-90
2022/11/05 06:59:00;;;;;;;;;;;6.20;96.70;;;;;;5020769;28;1591;-87
2022/11/05 07:01:27;;;;;;;;;;;6.20;97.30;;;;;;5017802;28;1517;-89
2022/11/05 07:09:54;;;;;;;;;;;6.50;96.60;;;;;;5002443;28;1499;-92
2022/11/05 07:12:46;;;;;;;;;;;6.20;96.60;;;;;;5028863;28;1670;-89
2022/11/05 07:15:51;;;;;;;;;;;6.30;97.20;;;;;;5020480;28;1910;-87
2022/11/05 07:18:26;;;;;;;;;;;6.20;97.30;;;;;;5015766;28;1596;-88
2022/11/05 07:20:54;;;;;;;;;;;6.40;96.80;;;;;;5019683;28;1499;-87
2022/11/05 07:23:22;;;;;;;;;;;6.40;96.60;;;;;;5015542;28;1584;-87
2022/11/05 07:25:49;;;;;;;;;;;6.40;96.40;;;;;;5017309;28;1152;-86
2022/11/05 07:28:23;;;;;;;;;;;6.40;96.70;;;;;;5022184;28;1545;-89
2022/11/05 07:30:52;;;;;;;;;;;6.50;97.60;;;;;;5009454;28;1526;-85
2022/11/05 07:33:20;;;;;;;;;;;6.50;97.20;;;;;;5011856;28;1164;-86
2022/11/05 07:35:55;;;;;;;;;;;6.70;97.30;;;;;;5020080;28;2356;-86
2022/11/05 07:38:26;;;;;;;;;;;6.70;96.90;;;;;;5017253;28;1437;-88
2022/11/05 07:40:58;;;;;;;;;;;6.80;96.60;;;;;;5015241;28;1520;-86
2022/11/05 07:43:26;;;;;;;;;;;6.90;96.50;;;;;;5016596;28;1239;-87
2022/11/05 07:45:54;;;;;;;;;;;6.80;96.00;;;;;;5016274;28;1716;-86
2022/11/05 07:48:22;;;;;;;;;;;7.00;96.00;;;;;;5020381;28;2229;-89
2022/11/05 07:50:57;;;;;;;;;;;7.30;95.80;;;;;;5010889;28;1709;-87
2022/11/05 07:53:28;;;;;;;;;;;7.10;96.60;;;;;;5018660;28;1496;-88
2022/11/05 08:06:17;;;;;;;;;;;7.30;96.10;;;;;;4766121;30;1249;-88
2022/11/05 08:08:52;;;;;;;;;;;7.50;95.90;;;;;;4768244;30;1554;-91
2022/11/05 08:20:46;;;;;;;;;;;7.10;95.60;;;;;;5006805;28;1862;-70
2022/11/05 08:23:15;;;;;;;;;;;7.50;95.90;;;;;;5006585;28;1246;-70
2022/11/05 08:25:43;;;;;;;;;;;7.60;95.40;;;;;;5007644;28;1096;-70
2022/11/05 08:28:12;;;;;;;;;;;7.70;95.40;;;;;;5008300;28;1358;-70
2022/11/05 08:30:42;;;;;;;;;;;7.80;95.30;;;;;;5006171;28;1555;-70
2022/11/05 08:33:12;;;;;;;;;;;7.90;95.40;;;;;;5008628;28;1339;-69
2022/11/05 08:35:40;;;;;;;;;;;7.90;95.10;;;;;;5008458;28;1129;-69
2022/11/05 08:38:12;;;;;;;;;;;8.00;95.10;;;;;;5002163;28;1914;-68
2022/11/05 08:40:42;;;;;;;;;;;8.10;94.90;;;;;;5004198;28;1495;-70
2022/11/05 08:43:10;;;;;;;;;;;8.20;94.80;;;;;;5006808;28;1259;-69
2022/11/05 08:45:38;;;;;;;;;;;8.10;94.50;;;;;;5005633;28;1085;-70
2022/11/05 08:48:07;;;;;;;;;;;8.20;95.10;;;;;;5003436;28;1155;-71
2022/11/05 08:50:35;;;;;;;;;;;8.30;94.50;;;;;;5008859;28;1493;-71
2022/11/05 08:53:03;;;;;;;;;;;8.40;94.00;;;;;;5016620;28;1232;-69
2022/11/05 08:55:32;;;;;;;;;;;8.50;94.20;;;;;;5009143;28;1290;-70
2022/11/05 08:58:01;;;;;;;;;;;8.40;94.00;;;;;;5005102;28;1907;-69
2022/11/05 09:00:30;;;;;;;;;;;8.40;94.00;;;;;;5007867;28;1109;-71
2022/11/05 09:02:58;;;;;;;;;;;8.40;93.90;;;;;;5003589;28;1194;-70
2022/11/05 09:05:26;;;;;;;;;;;8.50;94.00;;;;;;5001694;28;1528;-70
2022/11/05 09:07:54;;;;;;;;;;;8.50;93.70;;;;;;5001599;28;1537;-69
2022/11/05 09:10:28;;;;;;;;;;;8.50;93.70;;;;;;5002278;28;1005;-69
2022/11/05 09:12:56;;;;;;;;;;;8.60;93.80;;;;;;5002093;28;1689;-71
2022/11/05 09:15:25;;;;;;;;;;;8.60;93.50;;;;;;5007525;28;1682;-71
2022/11/05 09:17:52;;;;;;;;;;;8.70;93.50;;;;;;5003892;28;1983;-69
2022/11/05 09:20:20;;;;;;;;;;;8.80;93.10;;;;;;5006243;28;1160;-70
2022/11/05 09:22:48;;;;;;;;;;;8.80;93.10;;;;;;5004354;28;1370;-69
2022/11/05 09:25:15;;;;;;;;;;;8.90;93.20;;;;;;5001847;28;1372;-69
2022/11/05 09:27:43;;;;;;;;;;;9.00;92.60;;;;;;5005594;28;1083;-69
2022/11/05 09:30:11;;;;;;;;;;;9.00;92.70;;;;;;5002137;28;1041;-70
2022/11/05 09:32:41;;;;;;;;;;;9.00;92.80;;;;;;5001576;28;1417;-70
2022/11/05 09:35:09;;;;;;;;;;;9.10;92.80;;;;;;5004347;28;1746;-71
2022/11/05 09:37:37;;;;;;;;;;;9.20;92.50;;;;;;5001737;28;1874;-71
2022/11/05 09:40:05;;;;;;;;;;;9.30;92.40;;;;;;5004128;28;1245;-67
2022/11/05 09:42:36;;;;;;;;;;;9.30;92.20;;;;;;5007133;28;1367;-70
2022/11/05 09:45:07;;;;;;;;;;;9.40;92.20;;;;;;5005520;28;3438;-68
2022/11/05 09:47:36;;;;;;;;;;;9.40;92.20;;;;;;5007083;28;1112;-69
2022/11/05 09:50:07;;;;;;;;;;;9.60;91.80;;;;;;5001127;28;1401;-68
2022/11/05 09:52:35;;;;;;;;;;;9.60;91.90;;;;;;5000366;28;1602;-72
2022/11/05 09:55:03;;;;;;;;;;;9.60;92.00;;;;;;5002943;28;1179;-69
2022/11/05 09:57:36;;;;;;;;;;;9.60;91.90;;;;;;5003513;28;1946;-68
2022/11/05 10:00:07;;;;;;;;;;;9.80;91.80;;;;;;5002790;28;1036;-69
2022/11/05 10:02:37;;;;;;;;;;;9.80;91.70;;;;;;5003208;28;1362;-68
2022/11/05 10:05:08;;;;;;;;;;;9.80;91.60;;;;;;5007082;28;1064;-70
2022/11/05 10:07:40;;;;;;;;;;;9.90;91.60;;;;;;5000666;28;1639;-70
2022/11/05 10:10:17;;;;;;;;;;;9.90;91.80;;;;;;5003896;28;1109;-70
2022/11/05 10:12:47;;;;;;;;;;;9.90;91.50;;;;;;5005778;28;1417;-71
2022/11/05 10:18:47;;;;;;;;;;;10.10;91.10;;;;;;5003154;28;1906;-70
2022/11/05 10:21:18;;;;;;;;;;;10.00;90.70;;;;;;5005549;28;1377;-70
2022/11/05 10:24:12;;;;;;;;;;;10.00;90.70;;;;;;5005361;28;1723;-70
2022/11/05 10:26:39;;;;;;;;;;;10.10;90.70;;;;;;5004487;28;1092;-71
2022/11/05 10:29:07;;;;;;;;;;;10.20;90.50;;;;;;5004662;28;1050;-70
2022/11/05 10:31:36;;;;;;;;;;;10.20;90.60;;;;;;5002466;28;1763;-70
2022/11/05 10:34:06;;;;;;;;;;;10.20;90.50;;;;;;5006356;28;1101;-71
2022/11/05 10:36:36;;;;;;;;;;;10.30;90.30;;;;;;5006933;28;1833;-69
2022/11/05 10:39:09;;;;;;;;;;;10.40;90.30;;;;;;5002867;28;2057;-70
2022/11/05 10:41:43;;;;;;;;;;;10.40;90.30;;;;;;5003249;28;1837;-70
2022/11/05 10:44:19;;;;;;;;;;;10.40;90.20;;;;;;5003844;28;1286;-71
2022/11/05 10:46:51;;;;;;;;;;;10.40;90.20;;;;;;5008133;28;1175;-70
2022/11/05 10:49:24;;;;;;;;;;;10.50;90.40;;;;;;5006172;28;1113;-71
2022/11/05 10:51:57;;;;;;;;;;;10.50;90.00;;;;;;5009556;28;1306;-72
2022/11/05 10:54:29;;;;;;;;;;;10.40;90.00;;;;;;5007163;28;1247;-71
2022/11/05 10:56:57;;;;;;;;;;;10.30;90.10;;;;;;5012044;28;1077;-70
2022/11/05 10:59:25;;;;;;;;;;;10.40;90.10;;;;;;5017123;28;1977;-70
2022/11/05 11:01:59;;;;;;;;;;;10.50;90.50;;;;;;5017069;28;1860;-69
2022/11/05 11:04:28;;;;;;;;;;;10.60;90.00;;;;;;5008596;28;1941;-70
2022/11/05 11:07:05;;;;;;;;;;;10.60;89.60;;;;;;5008512;28;1999;-69
2022/11/05 11:09:35;;;;;;;;;;;10.70;89.70;;;;;;5007069;28;1722;-71
2022/11/05 11:12:04;;;;;;;;;;;10.70;89.40;;;;;;5006429;28;1311;-70
2022/11/05 11:14:33;;;;;;;;;;;10.70;88.70;;;;;;5003844;28;2011;-70
2022/11/05 11:17:32;;;;;;;;;;;10.80;89.00;;;;;;5003943;28;1850;-73
2022/11/05 11:20:19;;;;;;;;;;;10.90;89.00;;;;;;4958938;28;1276;-74
2022/11/05 11:23:05;;;;;;;;;;;10.90;89.10;;;;;;5001904;28;1324;-74
2022/11/05 11:25:37;;;;;;;;;;;10.90;88.60;;;;;;5005093;28;1816;-73
2022/11/05 11:28:06;;;;;;;;;;;11.00;88.40;;;;;;5003853;28;997;-73
2022/11/05 11:30:34;;;;;;;;;;;11.00;88.00;;;;;;5006512;28;1007;-73
2022/11/05 11:33:06;;;;;;;;;;;11.10;87.90;;;;;;5006236;28;1026;-73
2022/11/05 11:35:36;;;;;;;;;;;11.10;87.40;;;;;;5006900;28;1540;-73
2022/11/05 11:38:06;;;;;;;;;;;11.20;87.00;;;;;;5005357;28;1985;-74
2022/11/05 11:40:36;;;;;;;;;;;11.20;87.20;;;;;;5004524;28;1563;-74
2022/11/05 11:43:04;;;;;;;;;;;11.20;86.30;;;;;;5002113;28;1105;-74
2022/11/05 11:45:33;;;;;;;;;;;11.20;86.60;;;;;;5008399;28;1001;-74
2022/11/05 11:48:02;;;;;;;;;;;11.30;87.00;;;;;;5006639;28;1092;-75
2022/11/05 11:50:34;;;;;;;;;;;11.30;86.20;;;;;;5005721;28;1005;-74
2022/11/05 11:53:16;;;;;;;;;;;11.40;86.20;;;;;;5006545;28;1432;-74
2022/11/05 11:55:56;;;;;;;;;;;11.40;86.10;;;;;;5010910;28;1045;-75
2022/11/05 11:58:34;;;;;;;;;;;11.30;86.00;;;;;;5004712;28;1982;-74
2022/11/05 12:01:06;;;;;;;;;;;11.30;85.80;;;;;;5005482;28;1386;-73
2022/11/05 12:03:35;;;;;;;;;;;11.40;86.10;;;;;;5002391;28;1701;-73
2022/11/05 12:06:05;;;;;;;;;;;11.50;85.60;;;;;;5005057;28;1126;-73
2022/11/05 12:08:40;;;;;;;;;;;11.50;86.00;;;;;;5003825;28;1113;-74
2022/11/05 12:11:17;;;;;;;;;;;11.40;84.60;;;;;;5009661;28;1382;-73
2022/11/05 12:14:06;;;;;;;;;;;11.50;85.10;;;;;;5008320;28;1085;-74
2022/11/05 12:16:44;;;;;;;;;;;11.50;84.90;;;;;;5008893;28;1280;-72
2022/11/05 12:19:18;;;;;;;;;;;11.70;85.30;;;;;;5007246;28;1997;-74
2022/11/05 12:21:52;;;;;;;;;;;11.60;85.70;;;;;;5008108;28;1739;-75
2022/11/05 12:24:29;;;;;;;;;;;11.60;85.30;;;;;;5005415;28;1718;-73
2022/11/05 12:27:04;;;;;;;;;;;11.70;85.40;;;;;;5003939;28;1110;-73
2022/11/05 12:29:37;;;;;;;;;;;11.70;85.70;;;;;;5006896;28;1879;-74
2022/11/05 12:32:17;;;;;;;;;;;11.70;84.90;;;;;;5003817;28;1688;-73
2022/11/05 12:34:52;;;;;;;;;;;11.70;84.80;;;;;;5002289;28;1041;-74
2022/11/05 12:37:24;;;;;;;;;;;11.60;86.10;;;;;;5000198;28;1262;-75
2022/11/05 12:40:05;;;;;;;;;;;11.60;85.40;;;;;;5006000;28;1890;-71
2022/11/05 12:42:41;;;;;;;;;;;11.70;85.40;;;;;;5008894;28;1680;-71
2022/11/05 12:45:15;;;;;;;;;;;11.70;85.20;;;;;;5004562;28;1645;-69
2022/11/05 12:47:49;;;;;;;;;;;11.80;85.10;;;;;;5006141;28;1152;-69
2022/11/05 12:50:20;;;;;;;;;;;11.80;85.20;;;;;;5004417;28;1090;-69
2022/11/05 12:53:03;;;;;;;;;;;11.80;85.40;;;;;;5003818;28;2169;-74
2022/11/05 12:55:34;;;;;;;;;;;11.80;85.60;;;;;;5006923;28;1585;-69
2022/11/05 12:58:08;;;;;;;;;;;11.80;84.70;;;;;;5003751;28;1220;-78
2022/11/05 13:00:37;;;;;;;;;;;11.90;85.40;;;;;;4999701;28;1981;-68
2022/11/05 13:03:09;;;;;;;;;;;11.80;85.20;;;;;;5003094;28;1672;-74
2022/11/05 13:05:39;;;;;;;;;;;11.90;85.20;;;;;;5003085;28;1577;-70
2022/11/05 13:08:09;;;;;;;;;;;11.90;84.80;;;;;;5009002;28;1002;-70
2022/11/05 13:10:40;;;;;;;;;;;12.10;84.90;;;;;;5013671;28;1285;-71
2022/11/05 13:13:13;;;;;;;;;;;11.80;84.60;;;;;;5001799;28;990;-70
2022/11/05 13:15:45;;;;;;;;;;;11.80;84.90;;;;;;5000426;28;1673;-69
2022/11/05 13:18:14;;;;;;;;;;;11.90;84.90;;;;;;5000470;28;1285;-68
2022/11/05 13:20:44;;;;;;;;;;;12.00;84.60;;;;;;5006000;28;1966;-70
2022/11/05 13:23:15;;;;;;;;;;;12.20;84.40;;;;;;5004617;28;1105;-71
2022/11/05 13:25:46;;;;;;;;;;;12.30;84.00;;;;;;5003490;28;1108;-70
2022/11/05 13:28:17;;;;;;;;;;;12.40;84.00;;;;;;5001421;28;1682;-70
2022/11/05 13:30:47;;;;;;;;;;;12.40;83.70;;;;;;5002156;28;1292;-71
2022/11/05 13:33:17;;;;;;;;;;;12.30;84.00;;;;;;5002450;28;1490;-70
2022/11/05 13:35:47;;;;;;;;;;;12.20;83.90;;;;;;5006166;28;1044;-71
2022/11/05 13:41:16;;;;;;;;;;;12.30;83.80;;;;;;5003362;28;1382;-70
2022/11/05 13:43:57;;;;;;;;;;;12.20;84.20;;;;;;5002017;28;1098;-70
2022/11/05 13:46:29;;;;;;;;;;;12.10;84.20;;;;;;5004707;28;1081;-70
2022/11/05 13:49:12;;;;;;;;;;;12.10;84.80;;;;;;5002828;28;1042;-70
2022/11/05 13:51:48;;;;;;;;;;;12.20;84.30;;;;;;4993382;28;1458;-71
2022/11/05 13:54:29;;;;;;;;;;;12.20;84.30;;;;;;5002633;28;1114;-71
2022/11/05 13:57:03;;;;;;;;;;;12.20;84.70;;;;;;4998835;28;1076;-70
2022/11/05 13:59:51;;;;;;;;;;;12.20;85.10;;;;;;5001618;28;1910;-69
2022/11/05 14:02:20;;;;;;;;;;;12.10;84.90;;;;;;5005983;28;1292;-70
2022/11/05 14:04:50;;;;;;;;;;;12.00;85.30;;;;;;4999197;28;1043;-70
2022/11/05 14:07:22;;;;;;;;;;;12.00;85.30;;;;;;4999030;28;1053;-70
2022/11/05 14:09:54;;;;;;;;;;;11.90;85.80;;;;;;5002400;28;1025;-68
2022/11/05 14:12:24;;;;;;;;;;;11.90;85.90;;;;;;5004523;28;1209;-71
2022/11/05 14:14:59;;;;;;;;;;;11.80;85.40;;;;;;5004351;28;2030;-70
2022/11/05 14:17:27;;;;;;;;;;;11.90;85.90;;;;;;5002943;28;1014;-70
2022/11/05 14:20:07;;;;;;;;;;;11.90;86.10;;;;;;5002126;28;1972;-71
2022/11/05 14:22:37;;;;;;;;;;;11.80;86.30;;;;;;5003135;28;1430;-70
2022/11/05 14:25:28;;;;;;;;;;;11.80;86.60;;;;;;5000387;28;2021;-71
2022/11/05 14:27:57;;;;;;;;;;;11.80;86.60;;;;;;4941968;28;1237;-70
2022/11/05 14:30:43;;;;;;;;;;;11.80;86.90;;;;;;5001215;28;1050;-69
2022/11/05 14:33:14;;;;;;;;;;;11.70;86.60;;;;;;5001269;28;1561;-71
2022/11/05 14:35:42;;;;;;;;;;;11.70;86.90;;;;;;5000289;28;1006;-71
2022/11/05 14:38:18;;;;;;;;;;;11.70;87.20;;;;;;5000640;28;1252;-70
2022/11/05 14:40:46;;;;;;;;;;;11.60;87.40;;;;;;5002995;28;1914;-70
2022/11/05 14:43:19;;;;;;;;;;;11.60;87.50;;;;;;5001752;28;1052;-70
2022/11/05 14:45:55;;;;;;;;;;;11.60;87.30;;;;;;5004166;28;1104;-69
2022/11/05 14:48:32;;;;;;;;;;;11.50;87.40;;;;;;5002017;28;1074;-69
2022/11/05 14:51:00;;;;;;;;;;;11.60;87.60;;;;;;5003539;28;1237;-70
2022/11/05 14:53:30;;;;;;;;;;;11.60;87.50;;;;;;5004967;28;2002;-70
2022/11/05 14:56:00;;;;;;;;;;;11.50;87.60;;;;;;5002705;28;1223;-70
2022/11/05 14:58:32;;;;;;;;;;;11.40;87.40;;;;;;5000936;28;1033;-70
2022/11/05 15:01:02;;;;;;;;;;;11.50;87.30;;;;;;5000955;28;1985;-71
2022/11/05 15:03:32;;;;;;;;;;;11.50;87.30;;;;;;5000667;28;1014;-70
2022/11/05 15:06:04;;;;;;;;;;;11.50;87.50;;;;;;5005326;28;1034;-70
2022/11/05 15:08:35;;;;;;;;;;;11.60;87.60;;;;;;4999750;28;1260;-70
2022/11/05 15:11:08;;;;;;;;;;;11.60;87.50;;;;;;5003860;28;1284;-70
2022/11/05 15:13:40;;;;;;;;;;;11.60;87.40;;;;;;5002424;28;1437;-69
2022/11/05 15:16:09;;;;;;;;;;;11.70;87.60;;;;;;5001056;28;1094;-69
2022/11/05 15:18:38;;;;;;;;;;;11.70;87.70;;;;;;5008171;28;993;-69
2022/11/05 15:21:07;;;;;;;;;;;11.60;87.60;;;;;;5020792;28;1918;-69
2022/11/05 15:23:36;;;;;;;;;;;11.50;87.50;;;;;;4999928;28;1180;-68
2022/11/05 15:26:07;;;;;;;;;;;11.60;88.10;;;;;;5000444;28;1184;-71
2022/11/05 15:28:36;;;;;;;;;;;11.60;88.60;;;;;;5002123;28;1109;-69
2022/11/05 15:31:05;;;;;;;;;;;11.70;87.80;;;;;;5001393;28;1314;-70
2022/11/05 15:33:34;;;;;;;;;;;11.60;88.00;;;;;;5003960;28;1212;-70
2022/11/05 15:36:09;;;;;;;;;;;11.50;88.00;;;;;;5003752;28;1117;-70
2022/11/05 15:38:36;;;;;;;;;;;11.30;88.10;;;;;;5000923;28;1417;-70
2022/11/05 15:41:05;;;;;;;;;;;11.20;88.20;;;;;;5005183;28;1918;-70
2022/11/05 15:43:33;;;;;;;;;;;11.20;88.60;;;;;;5003908;28;1077;-70
2022/11/05 15:46:14;;;;;;;;;;;11.10;88.90;;;;;;5004224;28;1064;-70
2022/11/05 15:48:48;;;;;;;;;;;11.00;89.00;;;;;;5002025;28;1269;-68
2022/11/05 15:51:16;;;;;;;;;;;11.00;89.30;;;;;;5004907;28;1268;-70
2022/11/05 15:53:57;;;;;;;;;;;11.00;89.60;;;;;;5005160;28;991;-71
2022/11/05 15:56:47;;;;;;;;;;;10.90;89.60;;;;;;5002810;28;1146;-68
2022/11/05 15:59:16;;;;;;;;;;;11.00;89.80;;;;;;5003613;28;1097;-70
2022/11/05 16:01:46;;;;;;;;;;;10.90;89.80;;;;;;5004925;28;1989;-71
2022/11/05 16:04:17;;;;;;;;;;;10.90;90.00;;;;;;5004044;28;1015;-70
2022/11/05 16:06:46;;;;;;;;;;;10.90;90.10;;;;;;5004809;28;1201;-71
2022/11/05 16:09:24;;;;;;;;;;;10.90;90.10;;;;;;5004152;28;1144;-69
2022/11/05 16:12:10;;;;;;;;;;;10.90;90.00;;;;;;5002303;28;2134;-70
2022/11/05 16:14:38;;;;;;;;;;;11.00;90.30;;;;;;5005369;28;1188;-69
2022/11/05 16:17:18;;;;;;;;;;;10.90;90.00;;;;;;5004859;28;1729;-68
2022/11/05 16:19:47;;;;;;;;;;;10.90;90.10;;;;;;5003071;28;1090;-70
2022/11/05 16:22:15;;;;;;;;;;;11.00;90.20;;;;;;5003332;28;1908;-70
2022/11/05 16:24:43;;;;;;;;;;;10.90;90.00;;;;;;5004820;28;1089;-70
2022/11/05 16:27:15;;;;;;;;;;;11.00;90.10;;;;;;5006488;28;1196;-69
2022/11/05 16:29:48;;;;;;;;;;;10.90;90.20;;;;;;5006152;28;1363;-70
2022/11/05 16:32:17;;;;;;;;;;;11.00;90.10;;;;;;5005601;28;1266;-70